Woodland, Minnesota
Current Conditions -  °F | °C
As of 3:53 PM on Monday 24 Nov 2014 (Local Time) from KMIC Reporting Station
Light Snow Light Snow  
Wind Chill:   Ceiling: 2400
Heat Index: 20°   Visibility: 3mi
Dew Point: 14°   Wind: 20mph
Humidity: 78%   Direction: 310°NW
Pressure: 29.61"   Gusts: 24mph
Location:  44.9781°N, 93.5263°W
Report Text: KMIC 242153Z 31017G21KT 3SM -SN FEW018 BKN024 OVC044 M07/M10 A2961 RMK AO2 SNB15 SLP040 P0000 T10671100
Loading
Personal Weather Stations






























Interactive Weather Map New forecast layout! Learn more

10-Day Weather Forecast

Advertisements
Track Severe Weather on mobile